SVSA/SVZ METAR and TAF weather

Enter ICAO airport designator
Station Type Date Time Source
SVSA METAR 2020/10/23 22:00 UTC NOAA

SVSA 232200Z 0Z 2400/2500 06002KT 9999 SCT013 TX35/2419Z TN24/2408Z TEMPO 2400/2404 27004KT 9000 DZ SCT013


Station Type Date Time Source
SVSA Decoded METAR 2020/10/23 22:00 UTC NOAA

San Antonio Del Tachira, Venezuela (SVSA) 07-51N 072-27W 378M
Oct 23, 2020 - 06:00 PM EDT / 2020.10.23 2200 UTC
Wind: from the ENE (060 degrees) at 2 MPH (2 KT):0
Visibility: greater than 7 mile(s):0
Sky conditions: partly cloudy
ob: SVSA 232200Z 0Z 2400/2500 06002KT 9999 SCT013 TX35/2419Z TN24/2408Z TEMPO 2400/2404 27004KT 9000 DZ SCT013
cycle: 22

Station Type Date Time Source
SVSA TAF 2021/06/24 18:03 UTC NOAA

TAF TAF SVSA 240400Z 2418/2518 14006KT 9999 SCT020 TX30/2319Z TN22/2507Z
TEMPO 2418/2422 15006KT 9000 DZ OVC020
FM242300 SCT020 BKN090

Example: see airport list